WLF502 KDEN-KPHX
Flight info
| Callsign | WLF502 |
|---|---|
| Flight time | 1h 36m |
| Altitude | 36000 |
| Route | SMMUR2 DAAYE GUP EAGUL6 |
| Aircraft | B77L/H-SDE1E2E3FGHIJ2J3J4J5M1RWXY/LB1D1 |
Departure
| Time | 2026-05-05 21:22 |
|---|---|
| Airport | Denver International Airport (KDEN) |
Arrival
| Time | 2026-05-05 22:58 |
|---|---|
| Airport | Phoenix Sky Harbor International Airport (KPHX) |
| Time | Latitude | Longitude | Altitude | Speed | Heading |
|---|---|---|---|---|---|
| 2026-05-05 20:21 | 39.83095 | -104.67344 | 5395 ft | 0 kts | 359° |
| 2026-05-05 20:52 | 39.83087 | -104.67343 | 5395 ft | 4 kts | 1° |
| 2026-05-05 20:52 | 39.83060 | -104.67346 | 5390 ft | 4 kts | 10° |
| 2026-05-05 20:53 | 39.83034 | -104.67355 | 5396 ft | 4 kts | 26° |
| 2026-05-05 20:53 | 39.83014 | -104.67374 | 5385 ft | 4 kts | 69° |
| 2026-05-05 20:53 | 39.83012 | -104.67386 | 5396 ft | 4 kts | 92° |
| 2026-05-05 20:58 | 39.83012 | -104.67384 | 5397 ft | 1 kts | 92° |
| 2026-05-05 20:58 | 39.83011 | -104.67345 | 5388 ft | 7 kts | 91° |
| 2026-05-05 20:58 | 39.82995 | -104.67261 | 5390 ft | 12 kts | 117° |
| 2026-05-05 20:58 | 39.82950 | -104.67157 | 5398 ft | 14 kts | 111° |
| 2026-05-05 20:59 | 39.82938 | -104.67008 | 5397 ft | 18 kts | 91° |
| 2026-05-05 20:59 | 39.82936 | -104.66834 | 5409 ft | 20 kts | 90° |
| 2026-05-05 20:59 | 39.82935 | -104.66648 | 5424 ft | 21 kts | 91° |
| 2026-05-05 20:59 | 39.82934 | -104.66455 | 5431 ft | 19 kts | 89° |
| 2026-05-05 21:00 | 39.82940 | -104.66302 | 5439 ft | 16 kts | 65° |
| 2026-05-05 21:00 | 39.83039 | -104.66266 | 5439 ft | 16 kts | 0° |
| 2026-05-05 21:00 | 39.83146 | -104.66264 | 5438 ft | 16 kts | 1° |
| 2026-05-05 21:00 | 39.83254 | -104.66264 | 5435 ft | 16 kts | 0° |
| 2026-05-05 21:01 | 39.83362 | -104.66262 | 5435 ft | 16 kts | 1° |
| 2026-05-05 21:01 | 39.83480 | -104.66260 | 5430 ft | 20 kts | 0° |
| 2026-05-05 21:01 | 39.83636 | -104.66259 | 5419 ft | 23 kts | 1° |
| 2026-05-05 21:01 | 39.83795 | -104.66258 | 5415 ft | 23 kts | 1° |
| 2026-05-05 21:02 | 39.83901 | -104.66255 | 5415 ft | 23 kts | 0° |
| 2026-05-05 21:02 | 39.84061 | -104.66254 | 5416 ft | 23 kts | 0° |
| 2026-05-05 21:02 | 39.84221 | -104.66253 | 5415 ft | 23 kts | 1° |
| 2026-05-05 21:02 | 39.84382 | -104.66251 | 5413 ft | 24 kts | 1° |
| 2026-05-05 21:03 | 39.84610 | -104.66247 | 5410 ft | 26 kts | 0° |
| 2026-05-05 21:03 | 39.84792 | -104.66246 | 5405 ft | 27 kts | 1° |
| 2026-05-05 21:03 | 39.84920 | -104.66243 | 5404 ft | 27 kts | 1° |
| 2026-05-05 21:03 | 39.85110 | -104.66242 | 5396 ft | 27 kts | 0° |
| 2026-05-05 21:04 | 39.85299 | -104.66240 | 5392 ft | 27 kts | 1° |
| 2026-05-05 21:04 | 39.85489 | -104.66238 | 5395 ft | 27 kts | 0° |
| 2026-05-05 21:04 | 39.85678 | -104.66235 | 5390 ft | 27 kts | 0° |
| 2026-05-05 21:04 | 39.85868 | -104.66233 | 5392 ft | 27 kts | 1° |
| 2026-05-05 21:05 | 39.86057 | -104.66230 | 5391 ft | 27 kts | 1° |
| 2026-05-05 21:05 | 39.86246 | -104.66227 | 5383 ft | 27 kts | 0° |
| 2026-05-05 21:05 | 39.86435 | -104.66224 | 5384 ft | 27 kts | 1° |
| 2026-05-05 21:05 | 39.86625 | -104.66223 | 5377 ft | 27 kts | 0° |
| 2026-05-05 21:06 | 39.86814 | -104.66220 | 5373 ft | 27 kts | 1° |
| 2026-05-05 21:06 | 39.87002 | -104.66218 | 5372 ft | 25 kts | 0° |
| 2026-05-05 21:06 | 39.87096 | -104.66280 | 5372 ft | 13 kts | 299° |
| 2026-05-05 21:06 | 39.87170 | -104.66331 | 5369 ft | 13 kts | 355° |
| 2026-05-05 21:07 | 39.87260 | -104.66331 | 5366 ft | 13 kts | 0° |
| 2026-05-05 21:07 | 39.87349 | -104.66330 | 5365 ft | 13 kts | 1° |
| 2026-05-05 21:07 | 39.87437 | -104.66326 | 5365 ft | 11 kts | 9° |
| 2026-05-05 21:07 | 39.87468 | -104.66300 | 5365 ft | 0 kts | 53° |
| 2026-05-05 21:20 | 39.87470 | -104.66297 | 5365 ft | 4 kts | 55° |
| 2026-05-05 21:20 | 39.87523 | -104.66217 | 5362 ft | 18 kts | 17° |
| 2026-05-05 21:21 | 39.87644 | -104.66211 | 5367 ft | 17 kts | 0° |
| 2026-05-05 21:21 | 39.87743 | -104.66184 | 5361 ft | 13 kts | 50° |
| 2026-05-05 21:21 | 39.87755 | -104.66071 | 5361 ft | 15 kts | 91° |
| 2026-05-05 21:21 | 39.87753 | -104.65785 | 5360 ft | 59 kts | 90° |
| 2026-05-05 21:22 | 39.87747 | -104.64978 | 5352 ft | 118 kts | 90° |
| 2026-05-05 21:22 | 39.87737 | -104.63685 | 5337 ft | 165 kts | 91° |
| 2026-05-05 21:22 | 39.87711 | -104.62090 | 5587 ft | 179 kts | 92° |
| 2026-05-05 21:22 | 39.87596 | -104.60456 | 6090 ft | 184 kts | 94° |
| 2026-05-05 21:23 | 39.87453 | -104.58786 | 6648 ft | 191 kts | 105° |
| 2026-05-05 21:23 | 39.86910 | -104.57167 | 7107 ft | 194 kts | 115° |
| 2026-05-05 21:23 | 39.86323 | -104.55595 | 7623 ft | 201 kts | 114° |
| 2026-05-05 21:23 | 39.85669 | -104.53860 | 7749 ft | 225 kts | 114° |
| 2026-05-05 21:24 | 39.84974 | -104.51934 | 7989 ft | 247 kts | 113° |
| 2026-05-05 21:24 | 39.84267 | -104.49842 | 8392 ft | 263 kts | 112° |
| 2026-05-05 21:24 | 39.83553 | -104.47592 | 9097 ft | 269 kts | 112° |
| 2026-05-05 21:24 | 39.82855 | -104.45339 | 9820 ft | 270 kts | 114° |
| 2026-05-05 21:25 | 39.82159 | -104.43071 | 10002 ft | 276 kts | 114° |
| 2026-05-05 21:25 | 39.81339 | -104.40779 | 9988 ft | 276 kts | 127° |
| 2026-05-05 21:25 | 39.79917 | -104.39132 | 10140 ft | 278 kts | 152° |
| 2026-05-05 21:25 | 39.78055 | -104.38201 | 10423 ft | 299 kts | 165° |
| 2026-05-05 21:26 | 39.75996 | -104.37442 | 10596 ft | 324 kts | 165° |
| 2026-05-05 21:26 | 39.73742 | -104.36596 | 10810 ft | 347 kts | 165° |
| 2026-05-05 21:26 | 39.71342 | -104.36112 | 11203 ft | 355 kts | 183° |
| 2026-05-05 21:26 | 39.68901 | -104.36769 | 11854 ft | 362 kts | 202° |
| 2026-05-05 21:27 | 39.66560 | -104.38036 | 12741 ft | 367 kts | 205° |
| 2026-05-05 21:27 | 39.64199 | -104.39322 | 13754 ft | 369 kts | 206° |
| 2026-05-05 21:27 | 39.61818 | -104.40601 | 14676 ft | 371 kts | 206° |
| 2026-05-05 21:27 | 39.59413 | -104.41873 | 15502 ft | 376 kts | 206° |
| 2026-05-05 21:28 | 39.56966 | -104.43155 | 16255 ft | 382 kts | 206° |
| 2026-05-05 21:28 | 39.54489 | -104.44457 | 17039 ft | 384 kts | 207° |
| 2026-05-05 21:28 | 39.52184 | -104.46171 | 17608 ft | 383 kts | 224° |
| 2026-05-05 21:28 | 39.50417 | -104.48716 | 18284 ft | 380 kts | 236° |
| 2026-05-05 21:29 | 39.48785 | -104.51444 | 18919 ft | 385 kts | 234° |
| 2026-05-05 21:29 | 39.47106 | -104.54171 | 19623 ft | 389 kts | 234° |
| 2026-05-05 21:29 | 39.45396 | -104.56915 | 20314 ft | 394 kts | 234° |
| 2026-05-05 21:29 | 39.43718 | -104.59596 | 20942 ft | 399 kts | 234° |
| 2026-05-05 21:30 | 39.41960 | -104.62405 | 21594 ft | 405 kts | 233° |
| 2026-05-05 21:30 | 39.40179 | -104.65245 | 22253 ft | 409 kts | 233° |
| 2026-05-05 21:30 | 39.38375 | -104.68118 | 22918 ft | 414 kts | 233° |
| 2026-05-05 21:30 | 39.36556 | -104.71026 | 23497 ft | 419 kts | 233° |
| 2026-05-05 21:31 | 39.34715 | -104.73970 | 24028 ft | 423 kts | 233° |
| 2026-05-05 21:31 | 39.32884 | -104.76900 | 24591 ft | 426 kts | 233° |
| 2026-05-05 21:31 | 39.31020 | -104.79882 | 25179 ft | 428 kts | 233° |
| 2026-05-05 21:31 | 39.29145 | -104.82878 | 25745 ft | 430 kts | 233° |
| 2026-05-05 21:32 | 39.27348 | -104.85745 | 26414 ft | 429 kts | 233° |
| 2026-05-05 21:32 | 39.25466 | -104.88744 | 27013 ft | 431 kts | 233° |
| 2026-05-05 21:32 | 39.23572 | -104.91762 | 27500 ft | 435 kts | 233° |
| 2026-05-05 21:32 | 39.21657 | -104.94809 | 27926 ft | 440 kts | 233° |
| 2026-05-05 21:33 | 39.19720 | -104.97891 | 28343 ft | 445 kts | 233° |
| 2026-05-05 21:33 | 39.17764 | -105.00997 | 28809 ft | 447 kts | 233° |
| 2026-05-05 21:33 | 39.15788 | -105.04097 | 29285 ft | 449 kts | 231° |
| 2026-05-05 21:33 | 39.13464 | -105.06823 | 29654 ft | 459 kts | 217° |
| 2026-05-05 21:34 | 39.10624 | -105.08745 | 29931 ft | 464 kts | 209° |
| 2026-05-05 21:34 | 39.07693 | -105.10517 | 30265 ft | 466 kts | 210° |
| 2026-05-05 21:34 | 39.04788 | -105.12333 | 30824 ft | 462 kts | 211° |
| 2026-05-05 21:34 | 39.01943 | -105.14143 | 31672 ft | 449 kts | 212° |
| 2026-05-05 21:35 | 38.99199 | -105.15902 | 32761 ft | 434 kts | 213° |
| 2026-05-05 21:35 | 38.96522 | -105.17630 | 33502 ft | 428 kts | 213° |
| 2026-05-05 21:35 | 38.93872 | -105.19348 | 33867 ft | 426 kts | 213° |
| 2026-05-05 21:35 | 38.91223 | -105.21067 | 34168 ft | 427 kts | 213° |
| 2026-05-05 21:36 | 38.88570 | -105.22786 | 34376 ft | 428 kts | 213° |
| 2026-05-05 21:36 | 38.85911 | -105.24504 | 34720 ft | 427 kts | 213° |
| 2026-05-05 21:36 | 38.83262 | -105.26211 | 35064 ft | 426 kts | 213° |
| 2026-05-05 21:36 | 38.80615 | -105.27913 | 35386 ft | 425 kts | 213° |
| 2026-05-05 21:37 | 38.77974 | -105.29612 | 35588 ft | 426 kts | 213° |
| 2026-05-05 21:37 | 38.75320 | -105.31318 | 35623 ft | 425 kts | 213° |
| 2026-05-05 21:37 | 38.70075 | -105.34678 | 35671 ft | 418 kts | 213° |
| 2026-05-05 21:38 | 38.64884 | -105.38003 | 35683 ft | 417 kts | 213° |
| 2026-05-05 21:38 | 38.59703 | -105.41318 | 35709 ft | 417 kts | 213° |
| 2026-05-05 21:39 | 38.54512 | -105.44636 | 35684 ft | 417 kts | 213° |
| 2026-05-05 21:39 | 38.49326 | -105.47941 | 35713 ft | 416 kts | 213° |
| 2026-05-05 21:40 | 38.44163 | -105.51223 | 35708 ft | 414 kts | 213° |
| 2026-05-05 21:40 | 38.38990 | -105.54467 | 35710 ft | 415 kts | 213° |
| 2026-05-05 21:41 | 38.33807 | -105.57680 | 35713 ft | 414 kts | 213° |
| 2026-05-05 21:41 | 38.28650 | -105.60873 | 35682 ft | 411 kts | 214° |
| 2026-05-05 21:42 | 38.23519 | -105.64056 | 35687 ft | 409 kts | 214° |
| 2026-05-05 21:42 | 38.18413 | -105.67221 | 35664 ft | 408 kts | 213° |
| 2026-05-05 21:43 | 38.13303 | -105.70383 | 35668 ft | 409 kts | 213° |
| 2026-05-05 21:43 | 38.08160 | -105.73559 | 35659 ft | 412 kts | 213° |
| 2026-05-05 21:44 | 38.03177 | -105.76976 | 35630 ft | 402 kts | 220° |
| 2026-05-05 21:44 | 37.98766 | -105.81134 | 35613 ft | 391 kts | 225° |
| 2026-05-05 21:45 | 37.94844 | -105.85853 | 35619 ft | 389 kts | 230° |
| 2026-05-05 21:45 | 37.91038 | -105.90747 | 35609 ft | 391 kts | 230° |
| 2026-05-05 21:46 | 37.87212 | -105.95652 | 35631 ft | 392 kts | 230° |
| 2026-05-05 21:46 | 37.83367 | -106.00563 | 35681 ft | 394 kts | 229° |
| 2026-05-05 21:47 | 37.79501 | -106.05484 | 35730 ft | 395 kts | 229° |
| 2026-05-05 21:47 | 37.75620 | -106.10413 | 35783 ft | 395 kts | 230° |
| 2026-05-05 21:48 | 37.71750 | -106.15319 | 35822 ft | 393 kts | 230° |
| 2026-05-05 21:48 | 37.67896 | -106.20199 | 35849 ft | 391 kts | 230° |
| 2026-05-05 21:49 | 37.64054 | -106.25053 | 35867 ft | 390 kts | 230° |
| 2026-05-05 21:49 | 37.60871 | -106.29070 | 35861 ft | 389 kts | 230° |
| 2026-05-05 21:50 | 37.56430 | -106.34666 | 35839 ft | 388 kts | 229° |
| 2026-05-05 21:50 | 37.53219 | -106.38712 | 35818 ft | 393 kts | 229° |
| 2026-05-05 21:51 | 37.49313 | -106.43624 | 35793 ft | 399 kts | 229° |
| 2026-05-05 21:51 | 37.45383 | -106.48556 | 35788 ft | 399 kts | 229° |
| 2026-05-05 21:52 | 37.39499 | -106.55922 | 35778 ft | 397 kts | 229° |
| 2026-05-05 21:53 | 37.35590 | -106.60804 | 35776 ft | 395 kts | 229° |
| 2026-05-05 21:53 | 37.31701 | -106.65657 | 35779 ft | 394 kts | 229° |
| 2026-05-05 21:54 | 37.27816 | -106.70499 | 35825 ft | 394 kts | 229° |
| 2026-05-05 21:54 | 37.23954 | -106.75302 | 35810 ft | 394 kts | 229° |
| 2026-05-05 21:55 | 37.20067 | -106.80132 | 35789 ft | 392 kts | 229° |
| 2026-05-05 21:55 | 37.16191 | -106.84936 | 35785 ft | 391 kts | 229° |
| 2026-05-05 21:56 | 37.12328 | -106.89725 | 35775 ft | 390 kts | 229° |
| 2026-05-05 21:56 | 37.08467 | -106.94498 | 35744 ft | 390 kts | 229° |
| 2026-05-05 21:57 | 37.04613 | -106.99255 | 35751 ft | 389 kts | 229° |
| 2026-05-05 21:57 | 37.00758 | -107.04011 | 35757 ft | 389 kts | 229° |
| 2026-05-05 21:58 | 36.96887 | -107.08776 | 35746 ft | 391 kts | 228° |
| 2026-05-05 21:58 | 36.93003 | -107.13548 | 35739 ft | 391 kts | 228° |
| 2026-05-05 21:59 | 36.89129 | -107.18301 | 35740 ft | 389 kts | 228° |
| 2026-05-05 21:59 | 36.85269 | -107.23030 | 35732 ft | 388 kts | 228° |
| 2026-05-05 22:00 | 36.81421 | -107.27744 | 35739 ft | 387 kts | 228° |
| 2026-05-05 22:00 | 36.77580 | -107.32430 | 35737 ft | 386 kts | 228° |
| 2026-05-05 22:01 | 36.73748 | -107.37104 | 35736 ft | 385 kts | 228° |
| 2026-05-05 22:01 | 36.69942 | -107.41739 | 35738 ft | 385 kts | 227° |
| 2026-05-05 22:02 | 36.66085 | -107.46433 | 35743 ft | 386 kts | 227° |
| 2026-05-05 22:02 | 36.62274 | -107.51062 | 35747 ft | 385 kts | 227° |
| 2026-05-05 22:03 | 36.58448 | -107.55705 | 35777 ft | 383 kts | 227° |
| 2026-05-05 22:03 | 36.54646 | -107.60335 | 35786 ft | 382 kts | 227° |
| 2026-05-05 22:04 | 36.50798 | -107.64933 | 35796 ft | 384 kts | 227° |
| 2026-05-05 22:04 | 36.46971 | -107.69551 | 35813 ft | 383 kts | 227° |
| 2026-05-05 22:05 | 36.43163 | -107.74200 | 35810 ft | 386 kts | 227° |
| 2026-05-05 22:05 | 36.39319 | -107.78819 | 35823 ft | 384 kts | 227° |
| 2026-05-05 22:06 | 36.35483 | -107.83425 | 35787 ft | 383 kts | 227° |
| 2026-05-05 22:06 | 36.31644 | -107.87975 | 35820 ft | 380 kts | 227° |
| 2026-05-05 22:07 | 36.27843 | -107.92543 | 35831 ft | 380 kts | 227° |
| 2026-05-05 22:07 | 36.24065 | -107.97082 | 35832 ft | 379 kts | 227° |
| 2026-05-05 22:08 | 36.20269 | -108.01635 | 35833 ft | 380 kts | 227° |
| 2026-05-05 22:08 | 36.16457 | -108.06194 | 35827 ft | 382 kts | 227° |
| 2026-05-05 22:09 | 36.12623 | -108.10769 | 35823 ft | 383 kts | 227° |
| 2026-05-05 22:09 | 36.08775 | -108.15319 | 35823 ft | 383 kts | 227° |
| 2026-05-05 22:10 | 36.04940 | -108.19892 | 35815 ft | 382 kts | 227° |
| 2026-05-05 22:10 | 36.01107 | -108.24443 | 35819 ft | 382 kts | 227° |
| 2026-05-05 22:11 | 35.97277 | -108.28992 | 35809 ft | 382 kts | 227° |
| 2026-05-05 22:11 | 35.93440 | -108.33531 | 35808 ft | 382 kts | 227° |
| 2026-05-05 22:12 | 35.89608 | -108.38059 | 35818 ft | 381 kts | 227° |
| 2026-05-05 22:12 | 35.85768 | -108.42561 | 35821 ft | 380 kts | 227° |
| 2026-05-05 22:13 | 35.81936 | -108.47094 | 35807 ft | 383 kts | 227° |
| 2026-05-05 22:13 | 35.78056 | -108.51635 | 35812 ft | 386 kts | 227° |
| 2026-05-05 22:14 | 35.74210 | -108.56175 | 35800 ft | 386 kts | 227° |
| 2026-05-05 22:14 | 35.70331 | -108.60739 | 35811 ft | 386 kts | 227° |
| 2026-05-05 22:15 | 35.66443 | -108.65304 | 35801 ft | 386 kts | 227° |
| 2026-05-05 22:15 | 35.62513 | -108.69821 | 35819 ft | 387 kts | 227° |
| 2026-05-05 22:16 | 35.58636 | -108.74412 | 35828 ft | 386 kts | 227° |
| 2026-05-05 22:16 | 35.56698 | -108.76692 | 36001 ft | 386 kts | 227° |
| 2026-05-05 22:16 | 35.54751 | -108.78968 | 36017 ft | 386 kts | 227° |
| 2026-05-05 22:17 | 35.50847 | -108.83522 | 36000 ft | 388 kts | 226° |
| 2026-05-05 22:17 | 35.46957 | -108.88075 | 35968 ft | 385 kts | 228° |
| 2026-05-05 22:18 | 35.43264 | -108.92800 | 35966 ft | 383 kts | 230° |
| 2026-05-05 22:18 | 35.39622 | -108.97586 | 35942 ft | 384 kts | 229° |
| 2026-05-05 22:19 | 35.35952 | -109.02366 | 35895 ft | 386 kts | 229° |
| 2026-05-05 22:19 | 35.32260 | -109.07147 | 35860 ft | 386 kts | 229° |
| 2026-05-05 22:20 | 35.28562 | -109.11921 | 35823 ft | 386 kts | 229° |
| 2026-05-05 22:20 | 35.24863 | -109.16686 | 35822 ft | 386 kts | 229° |
| 2026-05-05 22:21 | 35.21158 | -109.21451 | 35814 ft | 387 kts | 229° |
| 2026-05-05 22:21 | 35.17444 | -109.26221 | 35771 ft | 387 kts | 229° |
| 2026-05-05 22:22 | 35.13762 | -109.30946 | 35802 ft | 386 kts | 229° |
| 2026-05-05 22:22 | 35.10033 | -109.35724 | 35815 ft | 386 kts | 229° |
| 2026-05-05 22:23 | 35.06353 | -109.40429 | 35808 ft | 385 kts | 229° |
| 2026-05-05 22:23 | 35.02654 | -109.45153 | 35804 ft | 385 kts | 229° |
| 2026-05-05 22:24 | 34.98952 | -109.49877 | 35816 ft | 386 kts | 229° |
| 2026-05-05 22:24 | 34.95236 | -109.54611 | 35805 ft | 387 kts | 229° |
| 2026-05-05 22:25 | 34.91513 | -109.59349 | 35796 ft | 387 kts | 229° |
| 2026-05-05 22:25 | 34.87783 | -109.64090 | 35797 ft | 387 kts | 229° |
| 2026-05-05 22:26 | 34.84055 | -109.68816 | 35789 ft | 386 kts | 229° |
| 2026-05-05 22:26 | 34.80344 | -109.73538 | 35798 ft | 385 kts | 229° |
| 2026-05-05 22:27 | 34.76644 | -109.78254 | 35793 ft | 385 kts | 229° |
| 2026-05-05 22:27 | 34.72942 | -109.82962 | 35805 ft | 385 kts | 229° |
| 2026-05-05 22:28 | 34.69771 | -109.88139 | 35796 ft | 383 kts | 243° |
| 2026-05-05 22:28 | 34.67623 | -109.94061 | 35815 ft | 383 kts | 244° |
| 2026-05-05 22:29 | 34.65453 | -109.99966 | 35812 ft | 383 kts | 244° |
| 2026-05-05 22:29 | 34.63260 | -110.05866 | 35810 ft | 384 kts | 243° |
| 2026-05-05 22:30 | 34.61055 | -110.11770 | 35819 ft | 384 kts | 243° |
| 2026-05-05 22:30 | 34.58839 | -110.17685 | 35830 ft | 385 kts | 243° |
| 2026-05-05 22:31 | 34.56615 | -110.23615 | 35643 ft | 388 kts | 243° |
| 2026-05-05 22:31 | 34.55495 | -110.26594 | 34920 ft | 383 kts | 243° |
| 2026-05-05 22:31 | 34.54405 | -110.29500 | 34020 ft | 373 kts | 243° |
| 2026-05-05 22:31 | 34.53349 | -110.32313 | 33420 ft | 356 kts | 243° |
| 2026-05-05 22:32 | 34.52363 | -110.34937 | 33236 ft | 332 kts | 243° |
| 2026-05-05 22:32 | 34.51439 | -110.37391 | 33108 ft | 308 kts | 243° |
| 2026-05-05 22:32 | 34.50593 | -110.39639 | 33059 ft | 286 kts | 242° |
| 2026-05-05 22:32 | 34.49787 | -110.41773 | 32954 ft | 273 kts | 242° |
| 2026-05-05 22:33 | 34.48989 | -110.43877 | 32656 ft | 280 kts | 242° |
| 2026-05-05 22:33 | 34.48148 | -110.46087 | 32367 ft | 299 kts | 242° |
| 2026-05-05 22:33 | 34.47247 | -110.48451 | 32044 ft | 317 kts | 242° |
| 2026-05-05 22:33 | 34.46328 | -110.50881 | 31618 ft | 317 kts | 242° |
| 2026-05-05 22:34 | 34.45412 | -110.53301 | 31224 ft | 315 kts | 242° |
| 2026-05-05 22:34 | 34.44502 | -110.55706 | 30833 ft | 313 kts | 242° |
| 2026-05-05 22:34 | 34.43596 | -110.58097 | 30444 ft | 311 kts | 242° |
| 2026-05-05 22:34 | 34.42694 | -110.60473 | 30056 ft | 310 kts | 242° |
| 2026-05-05 22:35 | 34.41795 | -110.62837 | 29629 ft | 308 kts | 241° |
| 2026-05-05 22:35 | 34.40905 | -110.65179 | 29201 ft | 305 kts | 242° |
| 2026-05-05 22:35 | 34.40021 | -110.67503 | 28806 ft | 302 kts | 242° |
| 2026-05-05 22:35 | 34.39146 | -110.69801 | 28434 ft | 299 kts | 242° |
| 2026-05-05 22:36 | 34.38277 | -110.72081 | 28060 ft | 297 kts | 242° |
| 2026-05-05 22:36 | 34.37413 | -110.74345 | 27694 ft | 296 kts | 242° |
| 2026-05-05 22:36 | 34.36553 | -110.76598 | 27336 ft | 295 kts | 242° |
| 2026-05-05 22:36 | 34.35665 | -110.78829 | 26971 ft | 293 kts | 238° |
| 2026-05-05 22:37 | 34.34478 | -110.80825 | 26649 ft | 293 kts | 230° |
| 2026-05-05 22:37 | 34.33098 | -110.82641 | 26281 ft | 294 kts | 229° |
| 2026-05-05 22:37 | 34.31691 | -110.84440 | 25901 ft | 296 kts | 228° |
| 2026-05-05 22:37 | 34.30271 | -110.86252 | 25531 ft | 298 kts | 229° |
| 2026-05-05 22:38 | 34.28843 | -110.88079 | 25167 ft | 300 kts | 229° |
| 2026-05-05 22:38 | 34.27408 | -110.89922 | 24809 ft | 303 kts | 229° |
| 2026-05-05 22:38 | 34.26449 | -110.91157 | 24542 ft | 305 kts | 229° |
| 2026-05-05 22:38 | 34.24994 | -110.93032 | 24178 ft | 307 kts | 229° |
| 2026-05-05 22:39 | 34.23533 | -110.94914 | 23791 ft | 306 kts | 229° |
| 2026-05-05 22:39 | 34.22078 | -110.96791 | 23377 ft | 306 kts | 229° |
| 2026-05-05 22:39 | 34.20629 | -110.98662 | 22962 ft | 303 kts | 229° |
| 2026-05-05 22:39 | 34.19194 | -111.00512 | 22560 ft | 301 kts | 229° |
| 2026-05-05 22:40 | 34.17772 | -111.02346 | 22174 ft | 298 kts | 229° |
| 2026-05-05 22:40 | 34.16358 | -111.04169 | 21824 ft | 298 kts | 229° |
| 2026-05-05 22:40 | 34.14932 | -111.06005 | 21450 ft | 302 kts | 228° |
| 2026-05-05 22:40 | 34.13492 | -111.07857 | 21074 ft | 302 kts | 228° |
| 2026-05-05 22:41 | 34.12064 | -111.09693 | 20852 ft | 297 kts | 228° |
| 2026-05-05 22:41 | 34.10679 | -111.11473 | 20777 ft | 285 kts | 228° |
| 2026-05-05 22:41 | 34.09348 | -111.13181 | 20685 ft | 274 kts | 228° |
| 2026-05-05 22:41 | 34.08067 | -111.14822 | 20567 ft | 265 kts | 228° |
| 2026-05-05 22:42 | 34.06812 | -111.16434 | 20293 ft | 262 kts | 228° |
| 2026-05-05 22:42 | 34.05571 | -111.18028 | 19936 ft | 261 kts | 228° |
| 2026-05-05 22:42 | 34.04322 | -111.19630 | 19486 ft | 263 kts | 227° |
| 2026-05-05 22:42 | 34.03057 | -111.21250 | 19004 ft | 266 kts | 227° |
| 2026-05-05 22:43 | 34.01782 | -111.22885 | 18595 ft | 269 kts | 227° |
| 2026-05-05 22:43 | 34.00499 | -111.24530 | 18209 ft | 270 kts | 227° |
| 2026-05-05 22:43 | 33.99210 | -111.26189 | 17839 ft | 270 kts | 227° |
| 2026-05-05 22:43 | 33.97926 | -111.27829 | 17515 ft | 268 kts | 227° |
| 2026-05-05 22:44 | 33.96650 | -111.29459 | 17157 ft | 267 kts | 227° |
| 2026-05-05 22:44 | 33.95380 | -111.31083 | 16792 ft | 267 kts | 227° |
| 2026-05-05 22:44 | 33.94115 | -111.32702 | 16428 ft | 264 kts | 227° |
| 2026-05-05 22:44 | 33.92851 | -111.34316 | 16053 ft | 266 kts | 227° |
| 2026-05-05 22:45 | 33.91592 | -111.35923 | 15723 ft | 261 kts | 227° |
| 2026-05-05 22:45 | 33.90346 | -111.37509 | 15334 ft | 260 kts | 227° |
| 2026-05-05 22:45 | 33.89105 | -111.39086 | 15021 ft | 258 kts | 226° |
| 2026-05-05 22:45 | 33.87880 | -111.40620 | 14669 ft | 256 kts | 223° |
| 2026-05-05 22:46 | 33.86451 | -111.41965 | 14211 ft | 259 kts | 216° |
| 2026-05-05 22:46 | 33.84963 | -111.43191 | 13924 ft | 257 kts | 216° |
| 2026-05-05 22:46 | 33.83494 | -111.44405 | 13595 ft | 255 kts | 216° |
| 2026-05-05 22:46 | 33.82039 | -111.45626 | 13166 ft | 255 kts | 216° |
| 2026-05-05 22:47 | 33.80623 | -111.46835 | 12865 ft | 251 kts | 217° |
| 2026-05-05 22:47 | 33.79171 | -111.48082 | 12357 ft | 264 kts | 216° |
| 2026-05-05 22:47 | 33.77649 | -111.49389 | 11976 ft | 273 kts | 216° |
| 2026-05-05 22:47 | 33.76094 | -111.50721 | 11603 ft | 275 kts | 216° |
| 2026-05-05 22:48 | 33.74538 | -111.52057 | 11257 ft | 274 kts | 217° |
| 2026-05-05 22:48 | 33.72992 | -111.53386 | 10902 ft | 272 kts | 217° |
| 2026-05-05 22:48 | 33.71454 | -111.54706 | 10572 ft | 271 kts | 216° |
| 2026-05-05 22:48 | 33.69924 | -111.56022 | 10222 ft | 270 kts | 216° |
| 2026-05-05 22:49 | 33.68397 | -111.57326 | 9908 ft | 268 kts | 216° |
| 2026-05-05 22:49 | 33.66894 | -111.58619 | 9617 ft | 263 kts | 216° |
| 2026-05-05 22:49 | 33.65408 | -111.59886 | 9306 ft | 262 kts | 216° |
| 2026-05-05 22:49 | 33.63936 | -111.61146 | 9004 ft | 258 kts | 216° |
| 2026-05-05 22:50 | 33.62488 | -111.62362 | 8778 ft | 251 kts | 216° |
| 2026-05-05 22:50 | 33.61088 | -111.63533 | 8705 ft | 239 kts | 216° |
| 2026-05-05 22:50 | 33.59759 | -111.64640 | 8605 ft | 227 kts | 216° |
| 2026-05-05 22:50 | 33.58481 | -111.65708 | 8382 ft | 220 kts | 216° |
| 2026-05-05 22:51 | 33.57222 | -111.66760 | 7990 ft | 220 kts | 216° |
| 2026-05-05 22:51 | 33.55984 | -111.67793 | 7695 ft | 217 kts | 217° |
| 2026-05-05 22:51 | 33.54763 | -111.68824 | 7366 ft | 213 kts | 217° |
| 2026-05-05 22:51 | 33.53551 | -111.69852 | 6990 ft | 213 kts | 217° |
| 2026-05-05 22:52 | 33.52328 | -111.70884 | 6554 ft | 216 kts | 217° |
| 2026-05-05 22:52 | 33.51101 | -111.71919 | 6239 ft | 214 kts | 217° |
| 2026-05-05 22:52 | 33.49888 | -111.72945 | 5871 ft | 214 kts | 217° |
| 2026-05-05 22:52 | 33.48674 | -111.73969 | 5545 ft | 213 kts | 217° |
| 2026-05-05 22:53 | 33.47469 | -111.74984 | 5275 ft | 210 kts | 217° |
| 2026-05-05 22:53 | 33.46375 | -111.76070 | 4992 ft | 199 kts | 229° |
| 2026-05-05 22:53 | 33.45506 | -111.77321 | 4740 ft | 192 kts | 232° |
| 2026-05-05 22:53 | 33.44691 | -111.78539 | 4499 ft | 184 kts | 232° |
| 2026-05-05 22:54 | 33.43897 | -111.79713 | 4259 ft | 181 kts | 231° |
| 2026-05-05 22:54 | 33.43135 | -111.80925 | 4082 ft | 182 kts | 244° |
| 2026-05-05 22:54 | 33.42880 | -111.82389 | 3869 ft | 179 kts | 269° |
| 2026-05-05 22:54 | 33.42883 | -111.83870 | 3664 ft | 174 kts | 269° |
| 2026-05-05 22:55 | 33.42879 | -111.85266 | 3473 ft | 161 kts | 268° |
| 2026-05-05 22:55 | 33.42880 | -111.86564 | 3294 ft | 150 kts | 268° |
| 2026-05-05 22:55 | 33.42880 | -111.87769 | 3138 ft | 141 kts | 267° |
| 2026-05-05 22:55 | 33.42877 | -111.88939 | 2949 ft | 141 kts | 269° |
| 2026-05-05 22:56 | 33.42877 | -111.90117 | 2765 ft | 141 kts | 270° |
| 2026-05-05 22:56 | 33.42880 | -111.91304 | 2581 ft | 145 kts | 268° |
| 2026-05-05 22:56 | 33.42884 | -111.92507 | 2434 ft | 145 kts | 267° |
| 2026-05-05 22:56 | 33.42873 | -111.93714 | 2267 ft | 142 kts | 266° |
| 2026-05-05 22:57 | 33.42856 | -111.94885 | 2122 ft | 138 kts | 268° |
| 2026-05-05 22:57 | 33.42854 | -111.96055 | 1897 ft | 145 kts | 269° |
| 2026-05-05 22:57 | 33.42864 | -111.97281 | 1698 ft | 148 kts | 270° |
| 2026-05-05 22:57 | 33.42888 | -111.98508 | 1485 ft | 145 kts | 270° |
| 2026-05-05 22:58 | 33.42887 | -111.99698 | 1272 ft | 141 kts | 270° |
| 2026-05-05 22:58 | 33.42883 | -112.00849 | 1134 ft | 133 kts | 268° |
| 2026-05-05 22:58 | 33.42884 | -112.01715 | 1132 ft | 71 kts | 270° |
| 2026-05-05 22:58 | 33.42870 | -112.02073 | 1133 ft | 33 kts | 252° |
| 2026-05-05 22:59 | 33.42783 | -112.02120 | 1129 ft | 17 kts | 115° |
| 2026-05-05 22:59 | 33.42774 | -112.01951 | 1132 ft | 25 kts | 91° |
| 2026-05-05 22:59 | 33.42775 | -112.01798 | 1129 ft | 14 kts | 91° |
| 2026-05-05 22:59 | 33.42689 | -112.01739 | 1135 ft | 13 kts | 181° |
| 2026-05-05 23:00 | 33.42604 | -112.01739 | 1129 ft | 6 kts | 178° |
| 2026-05-05 23:00 | 33.42563 | -112.01737 | 1134 ft | 6 kts | 178° |
| 2026-05-05 23:00 | 33.42502 | -112.01745 | 1134 ft | 13 kts | 204° |
| 2026-05-05 23:01 | 33.42476 | -112.01841 | 1130 ft | 13 kts | 287° |
| 2026-05-05 23:01 | 33.42524 | -112.01885 | 1132 ft | 8 kts | 350° |
| 2026-05-05 23:01 | 33.42571 | -112.01864 | 1134 ft | 8 kts | 55° |
| 2026-05-05 23:01 | 33.42578 | -112.01821 | 1132 ft | 3 kts | 86° |
| 2026-05-05 23:02 | 33.42579 | -112.01805 | 1129 ft | 0 kts | 86° |